Аэропорт: Алматы. Алма-Ата

ICAO: UAAA

METAR:
2021-10-23 00:30:00
UAAA 230030Z VRB01MPS 9999 FEW100 M01/M02 Q1035 R05R/2/0150 NOSIG
METAR:
2021-10-22 23:01:00
TAF UAAA 222301Z 2300/2324 16003MPS 3100 BR FU SCT050 BKN100 TX09/2308Z TNM03/2301Z TEMPO 2300/2304 21003MPS 0600 FZFG FEW003 BKN011 BECMG 2304/2305 04003MPS 9999 NSW TEMPO 2305/2313 09003G08MPS TEMPO 2313/2324 16003MPS 2000 BR FU